Time;durP1;ratioP1;P1;durP2;ratioP2;P2;SDS_P1;SDS_P2;PMS_P1;PMS_P2;Temp;Humidity;BMP_temperature;BMP_pressure;BME280_temperature;BME280_humidity;BME280_pressure;Samples;Min_cycle;Max_cycle;Signal;HPM_P1;HPM_P2
2023/08/18 00:00:10;;;;;;;12.82;2.55;;;;;;;16.91;100.00;100511.56;4880864;29;20031;-93
2023/08/18 00:02:35;;;;;;;11.93;3.15;;;;;;;16.84;100.00;100503.41;4880692;29;20472;-92
2023/08/18 00:05:00;;;;;;;11.80;2.53;;;;;;;16.79;100.00;100507.34;4880515;29;20013;-93
2023/08/18 00:07:26;;;;;;;7.65;1.98;;;;;;;16.70;100.00;100506.28;4894854;29;20036;-93
2023/08/18 00:09:51;;;;;;;11.55;2.70;;;;;;;16.73;100.00;100500.00;4879207;29;20404;-92
2023/08/18 00:12:17;;;;;;;6.93;2.88;;;;;;;16.66;100.00;100490.09;4880556;29;20120;-94
2023/08/18 00:14:42;;;;;;;10.98;2.83;;;;;;;16.61;100.00;100481.81;4894277;29;20039;-93
2023/08/18 00:17:07;;;;;;;11.18;3.13;;;;;;;16.67;100.00;100472.66;4880263;29;20025;-92
2023/08/18 00:19:33;;;;;;;15.00;2.88;;;;;;;16.81;100.00;100482.81;4880582;29;20380;-92
2023/08/18 00:21:58;;;;;;;5.55;2.92;;;;;;;16.66;100.00;100490.09;4880876;29;20037;-92
2023/08/18 00:24:24;;;;;;;11.48;3.80;;;;;;;16.60;100.00;100490.56;4880181;29;20522;-93
2023/08/18 00:26:49;;;;;;;16.75;3.58;;;;;;;16.75;100.00;100483.28;4879046;29;20030;-92
2023/08/18 00:29:15;;;;;;;8.55;3.42;;;;;;;16.76;100.00;100489.34;4880022;29;20035;-92
2023/08/18 00:31:40;;;;;;;12.23;4.28;;;;;;;16.68;100.00;100482.16;4880149;29;20476;-92
2023/08/18 00:34:06;;;;;;;12.82;4.07;;;;;;;16.69;100.00;100479.41;4879999;29;20464;-92
2023/08/18 00:36:31;;;;;;;10.35;3.65;;;;;;;16.84;100.00;100481.72;4879957;29;20100;-92
2023/08/18 00:38:58;;;;;;;9.60;4.10;;;;;;;16.64;100.00;100476.34;4880162;29;20086;-92
2023/08/18 00:41:24;;;;;;;15.75;4.65;;;;;;;16.67;100.00;100470.88;4879865;29;20039;-92
2023/08/18 00:43:49;;;;;;;15.30;4.45;;;;;;;16.62;100.00;100460.00;4879583;29;20483;-92
2023/08/18 00:46:17;;;;;;;7.57;4.72;;;;;;;16.62;100.00;100457.41;4880011;29;20057;-91
2023/08/18 00:48:42;;;;;;;12.68;4.50;;;;;;;16.73;100.00;100455.69;4880013;29;20029;-92
2023/08/18 00:51:09;;;;;;;15.45;5.18;;;;;;;16.77;100.00;100459.69;4879516;29;20044;-93
2023/08/18 00:53:35;;;;;;;11.82;4.93;;;;;;;16.75;100.00;100470.25;4893247;29;20037;-92
2023/08/18 00:56:01;;;;;;;14.45;4.55;;;;;;;16.83;100.00;100469.66;4879750;29;20100;-92
2023/08/18 00:58:27;;;;;;;15.75;5.32;;;;;;;16.75;100.00;100453.78;4879212;29;20036;-92
2023/08/18 01:00:53;;;;;;;12.20;4.88;;;;;;;16.77;100.00;100452.69;4879682;29;20029;-93
2023/08/18 01:03:18;;;;;;;11.80;5.65;;;;;;;16.74;100.00;100441.72;4879919;29;20029;-94
2023/08/18 01:05:44;;;;;;;12.82;5.60;;;;;;;16.72;100.00;100441.00;4893794;29;20154;-93
2023/08/18 01:08:09;;;;;;;10.55;5.68;;;;;;;16.74;100.00;100428.69;4893978;29;20025;-93
2023/08/18 01:10:49;;;;;;;15.93;6.15;;;;;;;16.77;100.00;100428.41;4878170;29;20366;-93
2023/08/18 01:13:38;;;;;;;18.95;6.03;;;;;;;16.78;100.00;100423.13;4878868;29;20025;-93
2023/08/18 01:16:09;;;;;;;15.07;5.60;;;;;;;16.70;100.00;100417.69;4879342;29;20040;-93
2023/08/18 01:18:35;;;;;;;11.65;5.93;;;;;;;16.68;100.00;100415.22;4879170;29;20482;-93
2023/08/18 01:21:03;;;;;;;12.85;7.22;;;;;;;16.72;100.00;100413.16;4878059;29;20072;-94
2023/08/18 01:23:41;;;;;;;11.77;5.10;;;;;;;16.61;100.00;100398.44;4879270;29;20033;-93
2023/08/18 01:26:07;;;;;;;12.75;7.05;;;;;;;16.77;100.00;100415.38;4879084;29;20029;-94
2023/08/18 01:28:34;;;;;;;19.40;6.88;;;;;;;16.69;100.00;100398.59;4892194;29;20039;-94
2023/08/18 01:31:06;;;;;;;24.73;7.50;;;;;;;16.64;100.00;100395.56;4893405;29;20033;-94
2023/08/18 01:33:43;;;;;;;14.30;5.90;;;;;;;16.73;100.00;100393.97;4909590;29;20043;-93
2023/08/18 01:36:12;;;;;;;18.17;6.97;;;;;;;16.64;100.00;100392.97;4898077;29;21091;-94
2023/08/18 01:38:38;;;;;;;18.63;6.93;;;;;;;16.59;100.00;100389.91;4897558;29;20039;-93
2023/08/18 01:41:09;;;;;;;14.02;6.55;;;;;;;16.68;100.00;100388.34;4894209;29;20055;-92
2023/08/18 01:43:34;;;;;;;18.85;7.07;;;;;;;16.80;100.00;100396.91;4877576;29;20117;-93
2023/08/18 01:46:03;;;;;;;15.82;7.20;;;;;;;16.70;100.00;100389.00;4878867;29;20056;-93
2023/08/18 01:48:28;;;;;;;15.65;7.82;;;;;;;16.76;100.00;100379.88;4878591;29;20484;-93
2023/08/18 01:50:54;;;;;;;16.38;7.90;;;;;;;16.68;100.00;100370.09;4878618;29;20043;-93
2023/08/18 01:53:19;;;;;;;21.45;8.10;;;;;;;16.69;100.00;100375.16;4878697;29;20040;-93
2023/08/18 01:55:45;;;;;;;21.08;7.45;;;;;;;16.72;100.00;100370.66;4878210;29;20049;-94
2023/08/18 01:58:10;;;;;;;14.95;7.60;;;;;;;16.63;100.00;100373.09;4878707;29;20497;-93
2023/08/18 02:00:35;;;;;;;16.20;7.88;;;;;;;16.78;100.00;100367.53;4878552;29;20041;-93
2023/08/18 02:03:01;;;;;;;19.73;7.18;;;;;;;16.66;100.00;100357.19;4878118;29;20027;-92
2023/08/18 02:05:26;;;;;;;18.50;6.88;;;;;;;16.63;100.00;100348.78;4878212;29;20115;-94
2023/08/18 02:07:52;;;;;;;12.45;7.25;;;;;;;16.74;100.00;100346.09;4877166;29;20032;-94
2023/08/18 02:10:18;;;;;;;15.88;7.65;;;;;;;16.71;100.00;100342.94;4877126;29;20033;-93
2023/08/18 02:12:43;;;;;;;15.82;7.50;;;;;;;16.66;100.00;100340.72;4877815;29;20025;-93
2023/08/18 02:15:09;;;;;;;22.50;9.25;;;;;;;16.59;100.00;100343.00;4892586;29;20029;-93
2023/08/18 02:17:34;;;;;;;15.60;7.90;;;;;;;16.62;100.00;100337.53;4878377;29;20029;-94
2023/08/18 02:20:00;;;;;;;14.63;7.82;;;;;;;16.71;100.00;100329.91;4878221;29;20366;-93
2023/08/18 02:22:26;;;;;;;17.02;8.30;;;;;;;16.69;100.00;100333.47;4878199;29;20068;-93
2023/08/18 02:24:52;;;;;;;12.55;7.80;;;;;;;16.67;100.00;100319.72;4878345;29;20057;-93
2023/08/18 02:27:17;;;;;;;15.45;8.30;;;;;;;16.65;100.00;100332.09;4876646;29;20181;-93
2023/08/18 02:29:43;;;;;;;19.52;9.15;;;;;;;16.64;100.00;100320.00;4878286;29;20108;-93
2023/08/18 02:32:08;;;;;;;16.98;8.63;;;;;;;16.73;100.00;100317.56;4877967;29;20033;-93
2023/08/18 02:34:33;;;;;;;16.65;7.97;;;;;;;16.75;100.00;100313.84;4877947;29;20514;-93
2023/08/18 02:36:59;;;;;;;14.73;8.07;;;;;;;16.67;100.00;100313.69;4878200;29;20061;-93
2023/08/18 02:39:24;;;;;;;14.85;8.27;;;;;;;16.67;100.00;100317.13;4877860;29;20037;-94
2023/08/18 02:41:51;;;;;;;20.13;8.55;;;;;;;16.66;100.00;100320.69;4877373;29;20456;-94
2023/08/18 02:44:17;;;;;;;14.07;7.82;;;;;;;16.65;100.00;100316.44;4877962;29;20061;-93
2023/08/18 02:46:42;;;;;;;15.10;7.40;;;;;;;16.67;100.00;100311.91;4876702;29;20471;-94
2023/08/18 02:49:08;;;;;;;17.20;7.95;;;;;;;16.68;100.00;100318.78;4876736;29;20029;-94
2023/08/18 02:51:33;;;;;;;17.83;8.40;;;;;;;16.74;100.00;100324.44;4877887;29;20387;-93
2023/08/18 02:53:58;;;;;;;13.05;8.15;;;;;;;16.75;100.00;100315.66;4878008;29;20081;-93
2023/08/18 02:56:24;;;;;;;17.42;7.93;;;;;;;16.81;100.00;100320.38;4877361;29;20037;-93
2023/08/18 02:58:49;;;;;;;15.30;8.13;;;;;;;16.74;100.00;100324.44;4878082;29;20445;-93
2023/08/18 03:01:15;;;;;;;12.15;7.72;;;;;;;16.76;100.00;100317.31;4876798;29;20021;-93
2023/08/18 03:03:40;;;;;;;16.30;7.40;;;;;;;16.77;100.00;100309.34;4878394;29;20499;-94
2023/08/18 03:06:07;;;;;;;21.95;7.82;;;;;;;16.73;100.00;100312.34;4877803;29;20036;-95
2023/08/18 03:08:34;;;;;;;15.20;7.30;;;;;;;16.76;100.00;100304.28;4877911;29;20021;-94
2023/08/18 03:11:01;;;;;;;14.13;7.70;;;;;;;16.84;100.00;100304.47;4877180;29;20315;-93
2023/08/18 03:13:26;;;;;;;11.65;7.25;;;;;;;16.76;100.00;100296.47;4877846;29;20029;-93
2023/08/18 03:15:52;;;;;;;13.85;7.00;;;;;;;16.75;100.00;100302.63;4878123;29;20116;-94
2023/08/18 03:18:17;;;;;;;14.30;8.05;;;;;;;16.79;100.00;100311.88;4881251;29;20477;-93
2023/08/18 03:20:44;;;;;;;17.50;7.22;;;;;;;16.76;100.00;100312.09;4881421;29;20081;-93
2023/08/18 03:23:13;;;;;;;17.25;7.45;;;;;;;16.81;100.00;100305.56;4880245;29;20437;-94
2023/08/18 03:25:38;;;;;;;16.92;8.20;;;;;;;16.79;100.00;100304.03;4881185;29;20029;-94
2023/08/18 03:28:04;;;;;;;15.90;7.35;;;;;;;16.80;100.00;100295.25;4881037;29;20106;-93
2023/08/18 03:30:30;;;;;;;13.43;7.10;;;;;;;16.81;100.00;100289.09;4881033;29;20436;-94
2023/08/18 03:32:55;;;;;;;15.27;7.07;;;;;;;16.79;100.00;100296.22;4881021;29;20444;-94
2023/08/18 03:35:21;;;;;;;17.55;7.30;;;;;;;16.73;100.00;100288.88;4881111;29;20029;-94
2023/08/18 03:37:46;;;;;;;18.63;7.43;;;;;;;16.79;100.00;100291.84;4879956;29;20029;-94
2023/08/18 03:40:12;;;;;;;16.45;7.45;;;;;;;16.88;100.00;100295.44;4880520;29;20025;-93
2023/08/18 03:42:37;;;;;;;14.52;7.03;;;;;;;16.93;100.00;100290.66;4880664;29;20041;-93
2023/08/18 03:45:04;;;;;;;15.05;7.18;;;;;;;16.83;100.00;100301.03;4880710;29;20176;-93
2023/08/18 03:47:29;;;;;;;13.15;6.53;;;;;;;16.82;100.00;100306.38;4880535;29;20056;-93
2023/08/18 03:49:55;;;;;;;15.80;7.07;;;;;;;16.86;100.00;100308.59;4880777;29;20443;-93
2023/08/18 03:52:20;;;;;;;16.67;7.68;;;;;;;16.95;100.00;100301.78;4880424;29;20037;-93
2023/08/18 03:54:46;;;;;;;18.70;9.13;;;;;;;16.73;100.00;100310.59;4893820;29;20029;-95
2023/08/18 03:57:12;;;;;;;25.92;10.55;;;;;;;16.57;100.00;100303.22;4879617;29;20025;-95
2023/08/18 03:59:37;;;;;;;22.13;11.90;;;;;;;16.42;100.00;100288.91;4879633;29;20480;-94
2023/08/18 04:02:02;;;;;;;21.88;11.93;;;;;;;16.28;100.00;100287.44;4880497;29;20396;-93
2023/08/18 04:04:28;;;;;;;27.10;13.52;;;;;;;16.14;100.00;100291.22;4880564;29;20029;-93
2023/08/18 04:06:53;;;;;;;27.75;13.30;;;;;;;16.16;100.00;100286.69;4880373;29;20040;-94
2023/08/18 04:09:18;;;;;;;29.50;15.40;;;;;;;16.13;100.00;100299.97;4880163;29;20563;-94
2023/08/18 04:11:44;;;;;;;25.20;14.68;;;;;;;16.13;100.00;100309.56;4880248;29;20081;-94
2023/08/18 04:14:10;;;;;;;25.27;14.05;;;;;;;16.12;100.00;100318.31;4880098;29;20108;-93
2023/08/18 04:16:36;;;;;;;26.55;14.27;;;;;;;16.10;100.00;100305.44;4880183;29;20051;-93
2023/08/18 04:19:03;;;;;;;27.02;13.98;;;;;;;16.12;100.00;100303.53;4878867;29;20469;-93
2023/08/18 04:21:29;;;;;;;26.40;14.57;;;;;;;16.14;100.00;100313.81;4894561;29;20025;-93
2023/08/18 04:23:54;;;;;;;26.15;14.20;;;;;;;16.12;100.00;100313.09;4879694;29;20028;-93
2023/08/18 04:26:19;;;;;;;21.60;14.57;;;;;;;16.12;100.00;100311.34;4894222;29;20032;-94
2023/08/18 04:28:46;;;;;;;21.65;12.93;;;;;;;16.04;100.00;100305.94;4880059;29;20480;-94
2023/08/18 04:31:12;;;;;;;24.63;14.65;;;;;;;16.10;100.00;100305.44;4879929;29;20068;-94
2023/08/18 04:33:37;;;;;;;45.47;16.27;;;;;;;16.13;100.00;100299.97;4894360;29;20029;-93
2023/08/18 04:36:03;;;;;;;31.40;15.30;;;;;;;16.09;100.00;100287.34;4880098;29;20379;-94
2023/08/18 04:38:29;;;;;;;27.98;15.52;;;;;;;16.07;100.00;100284.88;4880620;29;20062;-93
2023/08/18 04:40:59;;;;;;;24.33;14.82;;;;;;;16.11;100.00;100286.25;4898644;29;20033;-93
2023/08/18 04:43:24;;;;;;;29.48;15.40;;;;;;;16.09;100.00;100287.34;4898664;29;20052;-93
2023/08/18 04:45:51;;;;;;;26.83;15.27;;;;;;;16.16;100.00;100284.09;4897068;29;20074;-93
2023/08/18 04:48:16;;;;;;;30.17;15.10;;;;;;;16.07;100.00;100271.84;4897373;29;20077;-92
2023/08/18 04:50:42;;;;;;;26.92;15.35;;;;;;;16.10;100.00;100269.00;4898389;29;20029;-93
2023/08/18 04:53:07;;;;;;;30.50;15.52;;;;;;;16.07;100.00;100264.06;4897107;29;20033;-93
2023/08/18 04:55:35;;;;;;;29.75;17.48;;;;;;;16.01;100.00;100256.72;4898116;29;20112;-93
2023/08/18 04:58:02;;;;;;;34.15;17.20;;;;;;;16.05;100.00;100265.94;4898364;29;20031;-93
2023/08/18 05:00:28;;;;;;;35.85;18.73;;;;;;;16.07;100.00;100258.00;4898268;29;20027;-91
2023/08/18 05:02:53;;;;;;;36.47;19.48;;;;;;;16.06;100.00;100257.16;4898189;29;20571;-92
2023/08/18 05:05:19;;;;;;;33.08;20.95;;;;;;;16.07;100.00;100256.25;4897848;29;20044;-92
2023/08/18 05:07:45;;;;;;;35.20;19.60;;;;;;;16.11;100.00;100255.00;4897636;29;20021;-91
2023/08/18 05:10:10;;;;;;;27.35;18.15;;;;;;;16.13;100.00;100252.28;4897214;29;20036;-91
2023/08/18 05:12:35;;;;;;;26.90;17.38;;;;;;;16.14;100.00;100239.16;4897825;29;20035;-91
2023/08/18 05:15:01;;;;;;;26.63;15.32;;;;;;;16.14;100.00;100239.16;4897836;29;20089;-91
2023/08/18 05:17:27;;;;;;;30.17;17.55;;;;;;;16.07;100.00;100232.81;4897998;29;20392;-91
2023/08/18 05:19:52;;;;;;;28.17;16.40;;;;;;;16.09;100.00;100246.50;4897902;29;20032;-90
2023/08/18 05:22:21;;;;;;;25.13;17.65;;;;;;;16.14;100.00;100239.16;4897917;29;20056;-91
2023/08/18 05:24:47;;;;;;;34.30;19.00;;;;;;;16.12;100.00;100240.19;4878876;29;21303;-91
2023/08/18 05:27:13;;;;;;;27.70;14.90;;;;;;;16.13;100.00;100247.91;4877802;29;20029;-90
2023/08/18 05:29:39;;;;;;;31.70;17.92;;;;;;;16.16;100.00;100255.44;4879017;29;20037;-91
2023/08/18 05:32:04;;;;;;;30.55;16.55;;;;;;;16.14;100.00;100254.78;4879344;29;20495;-91
2023/08/18 05:34:29;;;;;;;30.33;17.95;;;;;;;16.15;100.00;100255.59;4877829;29;20029;-91
2023/08/18 05:36:55;;;;;;;31.55;17.80;;;;;;;16.17;100.00;100249.31;4878938;29;20100;-91
2023/08/18 05:39:20;;;;;;;36.10;19.02;;;;;;;16.13;100.00;100241.88;4891121;29;20065;-91
2023/08/18 05:41:45;;;;;;;31.02;18.55;;;;;;;16.21;100.00;100239.44;4896286;29;20079;-91
2023/08/18 05:44:11;;;;;;;29.77;19.20;;;;;;;16.22;100.00;100241.94;4911829;29;20025;-91
2023/08/18 05:46:36;;;;;;;30.13;17.70;;;;;;;16.20;100.00;100240.41;4897328;29;20028;-92
2023/08/18 05:49:02;;;;;;;27.77;17.00;;;;;;;16.19;100.00;100236.97;4897609;29;20468;-91
2023/08/18 05:51:28;;;;;;;31.88;18.52;;;;;;;16.16;100.00;100221.59;4897218;29;20085;-91
2023/08/18 05:53:53;;;;;;;28.17;16.17;;;;;;;16.28;100.00;100235.38;4884868;29;20444;-92
2023/08/18 05:56:18;;;;;;;34.58;17.35;;;;;;;16.23;100.00;100233.16;4878361;29;20040;-92
2023/08/18 05:58:44;;;;;;;29.90;17.40;;;;;;;16.25;100.00;100236.44;4877142;29;20025;-92
2023/08/18 06:01:09;;;;;;;33.38;17.75;;;;;;;16.23;100.00;100237.53;4878546;29;20025;-91
2023/08/18 06:03:34;;;;;;;28.95;17.40;;;;;;;16.29;100.00;100237.03;4877219;29;20299;-91
2023/08/18 06:06:00;;;;;;;32.75;17.13;;;;;;;16.30;100.00;100237.84;4878373;29;20029;-92
2023/08/18 06:08:26;;;;;;;28.25;17.38;;;;;;;16.24;100.00;100234.81;4876668;29;20032;-91
2023/08/18 06:10:51;;;;;;;27.90;16.77;;;;;;;16.32;100.00;100239.38;4881660;29;20056;-92
2023/08/18 06:13:17;;;;;;;36.47;17.83;;;;;;;16.34;100.00;100239.22;4893603;29;20029;-92
2023/08/18 06:15:42;;;;;;;25.30;16.50;;;;;;;16.39;100.00;100242.28;4927594;29;20387;-92
2023/08/18 06:18:09;;;;;;;24.60;15.65;;;;;;;16.35;100.00;100239.09;4895435;29;20486;-92
2023/08/18 06:20:35;;;;;;;23.85;15.38;;;;;;;16.34;100.00;100236.63;4879249;29;20098;-93
2023/08/18 06:23:00;;;;;;;27.02;15.77;;;;;;;16.38;100.00;100243.22;4878102;29;20025;-93
2023/08/18 06:25:25;;;;;;;28.05;16.00;;;;;;;16.40;100.00;100231.72;4879175;29;20028;-95
2023/08/18 06:27:51;;;;;;;28.33;16.58;;;;;;;16.32;100.00;100228.13;4882612;29;20112;-94
2023/08/18 06:30:16;;;;;;;25.38;16.52;;;;;;;16.33;100.00;100227.16;4888743;29;20067;-93
2023/08/18 06:32:43;;;;;;;23.02;15.88;;;;;;;16.34;100.00;100239.22;4890010;29;20404;-94
2023/08/18 06:35:09;;;;;;;26.65;15.82;;;;;;;16.31;100.00;100240.31;4877892;29;20177;-93
2023/08/18 06:37:34;;;;;;;33.60;16.67;;;;;;;16.37;100.00;100247.63;4878956;29;20539;-92
2023/08/18 06:39:59;;;;;;;21.75;14.82;;;;;;;16.36;100.00;100238.16;4878104;29;20028;-93
2023/08/18 06:42:25;;;;;;;18.23;14.35;;;;;;;16.39;100.00;100237.06;4878157;29;20037;-93
2023/08/18 06:44:50;;;;;;;27.55;16.08;;;;;;;16.36;100.00;100239.91;4878051;29;20068;-92
2023/08/18 06:47:16;;;;;;;25.33;15.38;;;;;;;16.46;100.00;100243.41;4879132;29;20116;-91
2023/08/18 06:49:41;;;;;;;20.48;15.77;;;;;;;16.40;100.00;100243.91;4897009;29;20029;-93
2023/08/18 06:52:07;;;;;;;25.73;16.17;;;;;;;16.43;100.00;100248.88;4900730;29;20116;-93
2023/08/18 06:54:33;;;;;;;25.60;15.02;;;;;;;16.43;100.00;100249.69;4895793;29;20395;-93
2023/08/18 06:56:58;;;;;;;24.52;14.77;;;;;;;16.41;100.00;100237.75;4891853;29;20407;-93
2023/08/18 06:59:24;;;;;;;18.65;13.55;;;;;;;16.47;100.00;100239.84;4881754;29;20025;-93
2023/08/18 07:01:50;;;;;;;20.90;14.63;;;;;;;16.44;100.00;100245.31;4879831;29;20033;-93
2023/08/18 07:04:16;;;;;;;26.17;15.13;;;;;;;16.47;100.00;100258.06;4882020;29;20033;-93
2023/08/18 07:06:44;;;;;;;28.10;16.13;;;;;;;16.39;100.00;100244.88;4881274;29;20503;-93
2023/08/18 07:09:09;;;;;;;26.98;15.65;;;;;;;16.34;100.00;100254.84;4881404;29;20040;-92
2023/08/18 07:11:35;;;;;;;37.50;16.75;;;;;;;16.34;100.00;100254.84;4880195;29;20491;-92
2023/08/18 07:14:00;;;;;;;22.30;14.63;;;;;;;16.41;100.00;100261.19;4883496;29;20180;-90
2023/08/18 07:16:26;;;;;;;25.33;14.90;;;;;;;16.46;100.00;100259.03;4912956;29;20139;-90
2023/08/18 07:18:51;;;;;;;28.02;15.45;;;;;;;16.42;100.00;100268.06;4915613;29;20025;-90
2023/08/18 07:21:16;;;;;;;31.13;17.20;;;;;;;16.40;100.00;100265.56;4898529;29;20173;-90
2023/08/18 07:23:42;;;;;;;25.55;16.48;;;;;;;16.44;100.00;100261.78;4899833;29;20115;-90
2023/08/18 07:26:07;;;;;;;26.35;16.55;;;;;;;16.41;100.00;100269.84;4898614;29;20036;-90
2023/08/18 07:28:32;;;;;;;25.25;16.13;;;;;;;16.43;100.00;100260.09;4893028;29;20475;-90
2023/08/18 07:31:04;;;;;;;20.98;14.75;;;;;;;16.46;100.00;100259.03;4896595;29;20075;-90
2023/08/18 07:33:30;;;;;;;;;;;;;;;16.52;100.00;100263.72;4899969;29;20044;-91
2023/08/18 07:35:56;;;;;;;27.95;14.82;;;;;;;16.41;100.00;100262.03;4891529;29;20014;-90
2023/08/18 07:38:21;;;;;;;25.63;15.70;;;;;;;16.45;100.00;100250.38;4899323;29;20116;-91
2023/08/18 07:40:46;;;;;;;21.42;15.18;;;;;;;16.54;100.00;100255.78;4899645;29;20044;-91
2023/08/18 07:43:12;;;;;;;24.13;15.07;;;;;;;16.49;100.00;100253.56;4899684;29;20024;-91
2023/08/18 07:45:37;;;;;;;25.88;14.82;;;;;;;16.44;100.00;100250.53;4900666;29;20028;-90
2023/08/18 07:48:03;;;;;;;23.85;15.80;;;;;;;16.55;100.00;100247.81;4909828;29;20036;-90
2023/08/18 07:50:28;;;;;;;26.52;15.82;;;;;;;16.54;100.00;100248.78;4878853;29;20115;-91
2023/08/18 07:52:54;;;;;;;22.98;16.45;;;;;;;16.56;100.00;100244.28;4910294;29;20530;-90
2023/08/18 07:55:21;;;;;;;26.63;15.70;;;;;;;16.58;100.00;100246.72;4916028;29;20112;-90
2023/08/18 07:57:47;;;;;;;23.38;14.75;;;;;;;16.58;100.00;100242.38;4890117;29;20037;-90
2023/08/18 08:00:17;;;;;;;26.42;17.13;;;;;;;16.64;100.00;100249.63;4890487;29;20037;-90
2023/08/18 08:02:46;;;;;;;23.05;15.95;;;;;;;16.56;100.00;100241.66;4890260;29;20057;-90
2023/08/18 08:05:12;;;;;;;24.88;16.23;;;;;;;16.56;100.00;100249.47;4884673;29;20040;-90
2023/08/18 08:07:38;;;;;;;24.90;17.33;;;;;;;16.60;100.00;100253.44;4932100;29;20024;-90
2023/08/18 08:10:05;;;;;;;25.42;15.88;;;;;;;16.66;100.00;100255.53;4892067;29;20029;-89
2023/08/18 08:12:31;;;;;;;20.48;15.82;;;;;;;16.68;100.00;100243.22;4880064;29;20025;-90
2023/08/18 08:14:57;;;;;;;21.73;15.10;;;;;;;16.60;100.00;100229.19;4880095;29;20052;-90
2023/08/18 08:17:23;;;;;;;29.40;17.45;;;;;;;16.66;100.00;100237.31;4912543;29;20043;-89
2023/08/18 08:19:49;;;;;;;23.77;16.23;;;;;;;16.67;100.00;100225.91;4907534;29;20396;-90
2023/08/18 08:22:16;;;;;;;23.63;16.13;;;;;;;16.58;100.00;100228.50;4880084;29;20044;-90
2023/08/18 08:24:41;;;;;;;19.80;15.50;;;;;;;16.72;100.00;100237.72;4880000;29;20021;-90
2023/08/18 08:27:07;;;;;;;22.60;15.00;;;;;;;16.64;100.00;100228.78;4908992;29;20107;-90
2023/08/18 08:29:32;;;;;;;24.42;16.30;;;;;;;16.64;100.00;100215.75;4917575;29;20087;-90
2023/08/18 08:31:58;;;;;;;19.52;14.05;;;;;;;16.69;100.00;100221.41;4899678;29;20108;-90
2023/08/18 08:34:23;;;;;;;23.27;15.98;;;;;;;16.57;100.00;100212.03;4909472;29;20464;-90
2023/08/18 08:36:48;;;;;;;20.95;14.10;;;;;;;16.68;100.00;100205.91;4903976;29;20054;-90
2023/08/18 08:39:14;;;;;;;22.10;15.20;;;;;;;16.68;100.00;100200.69;4913087;29;20088;-90
2023/08/18 08:41:39;;;;;;;22.10;15.43;;;;;;;16.63;100.00;100205.47;4898426;29;20024;-90
2023/08/18 08:44:05;;;;;;;24.25;15.88;;;;;;;16.56;100.00;100202.59;4898326;29;20025;-91
2023/08/18 08:46:33;;;;;;;25.17;15.85;;;;;;;16.60;100.00;100218.75;4907465;29;20126;-90
2023/08/18 08:49:03;;;;;;;25.52;17.48;;;;;;;16.57;100.00;100211.22;4912791;29;20024;-90
2023/08/18 08:51:35;;;;;;;21.48;15.60;;;;;;;16.63;100.00;100208.91;4879606;29;20085;-90
2023/08/18 08:54:03;;;;;;;30.33;19.33;;;;;;;16.52;100.00;100213.41;4879045;29;20116;-90
2023/08/18 08:56:32;;;;;;;21.00;16.02;;;;;;;16.65;100.00;100212.22;4898131;29;20134;-91
2023/08/18 08:58:57;;;;;;;26.17;17.85;;;;;;;16.66;100.00;100213.84;4915799;29;20024;-92
2023/08/18 09:01:23;;;;;;;30.48;18.33;;;;;;;16.69;100.00;100215.38;4916398;29;20279;-92
2023/08/18 09:03:49;;;;;;;25.90;18.20;;;;;;;16.56;100.00;100217.41;4915472;29;20028;-92
2023/08/18 09:06:15;;;;;;;27.90;17.58;;;;;;;16.65;100.00;100222.63;4908940;29;20056;-91
2023/08/18 09:08:41;;;;;;;29.10;18.02;;;;;;;16.79;100.00;100223.25;4890170;29;20029;-91
2023/08/18 09:11:07;;;;;;;29.77;17.83;;;;;;;16.75;100.00;100216.59;4879143;29;20119;-91
2023/08/18 09:13:34;;;;;;;27.48;17.13;;;;;;;16.71;100.00;100204.81;4878454;29;20496;-91
2023/08/18 09:16:06;;;;;;;22.70;16.27;;;;;;;16.78;100.00;100209.41;4889640;29;20024;-91
2023/08/18 09:18:32;;;;;;;;;;;;;;;16.78;100.00;100198.13;4915655;29;20032;-91
2023/08/18 09:20:57;;;;;;;25.40;16.25;;;;;;;16.72;100.00;100196.03;4914936;29;19941;-92
2023/08/18 09:23:26;;;;;;;26.73;17.20;;;;;;;16.65;100.00;100193.97;4901813;29;20089;-93
2023/08/18 09:25:52;;;;;;;24.67;17.48;;;;;;;16.65;100.00;100196.59;4890752;29;20032;-91
2023/08/18 09:28:17;;;;;;;25.27;17.38;;;;;;;16.72;100.00;100190.81;4878952;29;20037;-92
2023/08/18 09:30:43;;;;;;;25.92;19.10;;;;;;;16.67;100.00;100193.81;4884534;29;20033;-88
2023/08/18 09:33:08;;;;;;;25.52;18.13;;;;;;;16.67;100.00;100199.84;4879326;29;20029;-91
2023/08/18 09:35:34;;;;;;;27.52;19.25;;;;;;;16.65;100.00;100186.16;4883492;29;20025;-90
2023/08/18 09:38:01;;;;;;;23.00;16.65;;;;;;;16.64;100.00;100192.31;4916349;29;20107;-90
2023/08/18 09:40:27;;;;;;;25.70;17.27;;;;;;;16.69;100.00;100197.94;4885717;29;20029;-90
2023/08/18 09:42:52;;;;;;;26.10;18.05;;;;;;;16.70;100.00;100198.75;4877633;29;20041;-89
2023/08/18 09:45:22;;;;;;;27.30;18.60;;;;;;;16.78;100.00;100206.78;4879657;29;20035;-91
2023/08/18 09:47:50;;;;;;;25.85;18.02;;;;;;;16.73;100.00;100195.06;4886355;29;20640;-91
2023/08/18 09:50:17;;;;;;;24.17;17.75;;;;;;;16.79;100.00;100192.78;4878902;29;20221;-90
2023/08/18 09:52:46;;;;;;;26.73;19.00;;;;;;;16.84;100.00;100184.56;4882153;29;20112;-90
2023/08/18 09:55:14;;;;;;;31.48;18.42;;;;;;;16.87;100.00;100182.53;4877339;29;20033;-90
2023/08/18 09:57:57;;;;;;;24.00;18.48;;;;;;;16.87;100.00;100181.69;4914098;29;20149;-90
2023/08/18 10:00:24;;;;;;;27.52;18.17;;;;;;;16.89;100.00;100171.94;4915155;29;20035;-90
2023/08/18 10:02:52;;;;;;;24.95;17.92;;;;;;;16.98;100.00;100175.53;4915853;29;20092;-90
2023/08/18 10:05:19;;;;;;;23.35;17.27;;;;;;;16.94;100.00;100177.56;4905300;29;20025;-90
2023/08/18 10:07:45;;;;;;;28.67;19.02;;;;;;;16.99;100.00;100172.78;4879266;29;20101;-90
2023/08/18 10:10:12;;;;;;;24.02;18.65;;;;;;;17.04;100.00;100172.38;4906197;29;20454;-91
2023/08/18 10:12:38;;;;;;;29.25;19.08;;;;;;;17.02;100.00;100169.91;4896020;29;20036;-90
2023/08/18 10:15:05;;;;;;;25.85;18.70;;;;;;;17.07;100.00;100177.34;4896211;29;20029;-90
2023/08/18 10:17:30;;;;;;;24.48;18.55;;;;;;;17.10;100.00;100175.25;4912324;29;20055;-91
2023/08/18 10:20:00;;;;;;;22.27;18.30;;;;;;;17.16;100.00;100175.69;4894400;29;20483;-91
2023/08/18 10:22:28;;;;;;;26.63;20.42;;;;;;;17.08;100.00;100171.97;4891341;29;20380;-92
2023/08/18 10:24:54;;;;;;;26.75;19.50;;;;;;;17.13;100.00;100170.75;4896451;29;20280;-92
2023/08/18 10:27:26;;;;;;;29.00;20.85;;;;;;;17.06;100.00;100166.06;4912947;29;20486;-91
2023/08/18 10:29:54;;;;;;;26.30;20.20;;;;;;;17.10;100.00;100158.81;4915191;29;20475;-92
2023/08/18 10:32:22;;;;;;;27.48;19.80;;;;;;;17.22;100.00;100151.66;4894577;29;20117;-90
2023/08/18 10:34:47;;;;;;;25.00;19.30;;;;;;;17.29;100.00;100153.59;4892396;29;20036;-90
2023/08/18 10:37:14;;;;;;;27.13;19.58;;;;;;;17.35;100.00;100156.59;4908149;29;20387;-90
2023/08/18 10:39:40;;;;;;;24.70;18.52;;;;;;;17.44;100.00;100140.94;4893345;29;20062;-90
2023/08/18 10:42:15;;;;;;;25.70;20.45;;;;;;;17.47;100.00;100130.22;4891712;29;20120;-91
2023/08/18 10:45:00;;;;;;;27.08;19.80;;;;;;;17.65;100.00;100119.84;4876318;29;20177;-91
2023/08/18 10:47:32;;;;;;;31.92;20.52;;;;;;;17.67;100.00;100114.50;4905502;29;20387;-90
2023/08/18 10:49:59;;;;;;;26.15;20.25;;;;;;;17.69;100.00;100112.59;4896556;29;20369;-90
2023/08/18 10:52:32;;;;;;;26.67;20.35;;;;;;;17.64;100.00;100113.00;4896450;29;20119;-91
2023/08/18 10:54:59;;;;;;;27.95;21.08;;;;;;;17.67;100.00;100117.94;4882682;29;20029;-91
2023/08/18 10:57:24;;;;;;;26.55;20.73;;;;;;;17.75;100.00;100112.84;4910813;29;20036;-91
2023/08/18 10:59:50;;;;;;;28.38;20.27;;;;;;;17.76;100.00;100105.81;4913688;29;20085;-91